createdAt,value
2022-09-09T00:00:55.284Z,16.36
2022-09-09T00:03:32.047Z,16.33
2022-09-09T00:06:11.375Z,16.31
2022-09-09T00:08:53.604Z,16.30
2022-09-09T00:11:31.644Z,16.29
2022-09-09T00:14:09.320Z,16.28
2022-09-09T00:16:48.848Z,16.30
2022-09-09T00:19:30.068Z,16.32
2022-09-09T00:22:16.402Z,16.34
2022-09-09T00:24:54.487Z,16.35
2022-09-09T00:27:33.315Z,16.35
2022-09-09T00:30:19.717Z,16.40
2022-09-09T00:32:59.228Z,16.41
2022-09-09T00:35:38.921Z,16.45
2022-09-09T00:38:17.207Z,16.49
2022-09-09T00:40:53.867Z,16.53
2022-09-09T00:43:32.168Z,16.56
2022-09-09T00:46:19.356Z,16.64
2022-09-09T00:49:01.542Z,16.69
2022-09-09T00:51:47.856Z,16.73
2022-09-09T00:54:40.081Z,16.78
2022-09-09T00:57:25.181Z,16.82
2022-09-09T01:00:06.477Z,16.85
2022-09-09T01:02:48.582Z,16.89
2022-09-09T01:05:32.469Z,16.94
2022-09-09T01:08:18.207Z,17.00
2022-09-09T01:10:54.209Z,17.04
2022-09-09T01:13:31.253Z,17.06
2022-09-09T01:16:07.404Z,17.10
2022-09-09T01:18:45.510Z,17.11
2022-09-09T01:21:26.962Z,17.09
2022-09-09T01:24:16.555Z,17.07
2022-09-09T01:26:53.605Z,17.04
2022-09-09T01:29:26.914Z,16.98
2022-09-09T01:32:01.899Z,16.94
2022-09-09T01:34:40.734Z,16.90
2022-09-09T01:37:15.836Z,16.82
2022-09-09T01:39:48.855Z,16.76
2022-09-09T01:42:23.111Z,16.70
2022-09-09T01:44:56.358Z,16.64
2022-09-09T01:47:29.516Z,16.57
2022-09-09T01:50:04.146Z,16.52
2022-09-09T01:52:38.216Z,16.46
2022-09-09T01:55:12.471Z,16.42
2022-09-09T01:57:57.171Z,16.39
2022-09-09T02:00:32.896Z,16.33
2022-09-09T02:03:14.735Z,16.30
2022-09-09T02:05:51.808Z,16.27
2022-09-09T02:08:29.776Z,16.25
2022-09-09T02:11:08.308Z,16.22
2022-09-09T02:13:44.665Z,16.21
2022-09-09T02:16:25.255Z,16.21
2022-09-09T02:19:02.814Z,16.20
2022-09-09T02:21:37.801Z,16.18
2022-09-09T02:24:11.451Z,16.20
2022-09-09T02:26:46.061Z,16.23
2022-09-09T02:29:24.786Z,16.28
2022-09-09T02:32:03.086Z,16.32
2022-09-09T02:34:41.028Z,16.36
2022-09-09T02:37:15.508Z,16.40
2022-09-09T02:39:48.705Z,16.41
2022-09-09T02:42:21.589Z,16.44
2022-09-09T02:44:56.059Z,16.47
2022-09-09T02:47:37.517Z,16.48
2022-09-09T02:50:15.647Z,16.50
2022-09-09T02:52:56.974Z,16.52
2022-09-09T02:55:40.327Z,16.54
2022-09-09T02:58:17.978Z,16.57
2022-09-09T03:00:53.605Z,16.63
2022-09-09T03:03:26.538Z,16.69
2022-09-09T03:05:59.674Z,16.76
2022-09-09T03:08:32.837Z,16.82
2022-09-09T03:11:05.847Z,16.89
2022-09-09T03:13:39.918Z,16.98
2022-09-09T03:16:15.310Z,17.05
2022-09-09T03:18:48.444Z,17.13
2022-09-09T03:21:21.239Z,17.21
2022-09-09T03:23:54.021Z,17.29
2022-09-09T03:26:26.845Z,17.37
2022-09-09T03:29:01.569Z,17.41
2022-09-09T03:31:37.516Z,17.47
2022-09-09T03:34:10.365Z,17.52
2022-09-09T03:36:43.230Z,17.55
2022-09-09T03:39:16.615Z,17.60
2022-09-09T03:41:49.712Z,17.63
2022-09-09T03:44:22.583Z,17.68
2022-09-09T03:46:56.884Z,17.71
2022-09-09T03:49:30.397Z,17.74
2022-09-09T03:52:03.557Z,17.78
2022-09-09T03:54:36.717Z,17.81
2022-09-09T03:57:09.606Z,17.85
2022-09-09T03:59:42.382Z,17.85
2022-09-09T04:02:16.723Z,17.88
2022-09-09T04:04:49.641Z,17.90
2022-09-09T04:07:22.527Z,17.94
2022-09-09T04:09:55.675Z,17.95
2022-09-09T04:12:28.525Z,17.97
2022-09-09T04:15:01.845Z,17.98
2022-09-09T04:17:37.320Z,18.04
2022-09-09T04:20:12.456Z,18.04
2022-09-09T04:22:45.297Z,18.04
2022-09-09T04:25:18.102Z,18.07
2022-09-09T04:27:56.262Z,18.08
2022-09-09T04:30:29.490Z,18.07
2022-09-09T04:33:03.809Z,18.07
2022-09-09T04:35:36.668Z,18.09
2022-09-09T04:38:10.413Z,18.09
2022-09-09T04:40:44.859Z,18.10
2022-09-09T04:43:18.117Z,18.09
2022-09-09T04:45:52.583Z,18.10
2022-09-09T04:48:27.163Z,18.09
2022-09-09T04:51:01.269Z,18.08
2022-09-09T04:53:35.133Z,18.09
2022-09-09T04:56:11.101Z,18.09
2022-09-09T04:58:45.061Z,18.08
2022-09-09T05:01:21.153Z,18.08
2022-09-09T05:03:55.482Z,18.08
2022-09-09T05:06:28.307Z,18.07
2022-09-09T05:09:01.311Z,18.08
2022-09-09T05:11:37.803Z,18.07
2022-09-09T05:14:12.470Z,18.08
2022-09-09T05:16:48.149Z,18.12
2022-09-09T05:19:22.408Z,18.09
2022-09-09T05:21:55.206Z,18.09
2022-09-09T05:24:27.983Z,18.10
2022-09-09T05:27:02.717Z,18.12
2022-09-09T05:29:35.570Z,18.14
2022-09-09T05:32:10.566Z,18.16
2022-09-09T05:34:47.847Z,18.20
2022-09-09T05:37:20.799Z,18.21
2022-09-09T05:39:54.361Z,18.23
2022-09-09T05:42:27.655Z,18.26
2022-09-09T05:45:00.798Z,18.28
2022-09-09T05:47:33.858Z,18.28
2022-09-09T05:50:09.928Z,18.30
2022-09-09T05:52:43.020Z,18.28
2022-09-09T05:55:16.522Z,18.28
2022-09-09T05:57:52.964Z,18.31
2022-09-09T06:00:25.932Z,18.29
2022-09-09T06:02:58.782Z,18.32
2022-09-09T06:05:34.236Z,18.35
2022-09-09T06:08:07.101Z,18.36
2022-09-09T06:10:39.890Z,18.38
2022-09-09T06:13:12.757Z,18.40
2022-09-09T06:15:52.169Z,18.46
2022-09-09T06:18:25.086Z,18.50
2022-09-09T06:21:01.598Z,18.54
2022-09-09T06:23:36.067Z,18.59
2022-09-09T06:26:12.519Z,18.65
2022-09-09T06:28:45.332Z,18.70
2022-09-09T06:31:24.118Z,18.75
2022-09-09T06:34:00.938Z,18.80
2022-09-09T06:36:37.829Z,18.87
2022-09-09T06:39:14.841Z,18.92
2022-09-09T06:41:48.333Z,18.99
2022-09-09T06:44:21.312Z,19.08
2022-09-09T06:46:54.266Z,19.17
2022-09-09T06:49:27.608Z,19.25
2022-09-09T06:52:01.892Z,19.35
2022-09-09T06:54:38.135Z,19.41
2022-09-09T07:00:04.860Z,19.55
2022-09-09T07:02:40.728Z,19.58
2022-09-09T07:05:13.979Z,19.62
2022-09-09T07:07:48.220Z,19.65
2022-09-09T07:10:21.534Z,19.66
2022-09-09T07:12:54.640Z,19.65
2022-09-09T07:15:27.627Z,19.66
2022-09-09T07:18:04.061Z,19.69
2022-09-09T07:20:37.060Z,19.72
2022-09-09T07:23:11.276Z,19.77
2022-09-09T07:25:46.741Z,19.85
2022-09-09T07:28:19.662Z,19.88
2022-09-09T07:30:59.072Z,19.92
2022-09-09T07:33:34.681Z,19.94
2022-09-09T07:36:11.436Z,19.97
2022-09-09T07:38:47.373Z,19.98
2022-09-09T07:41:23.667Z,20.06
2022-09-09T07:43:56.845Z,20.14
2022-09-09T07:46:29.794Z,20.27
2022-09-09T07:49:03.400Z,20.39
2022-09-09T07:51:38.257Z,20.53
2022-09-09T07:54:14.406Z,20.67
2022-09-09T07:56:47.818Z,20.80
2022-09-09T07:59:20.777Z,20.93
2022-09-09T08:01:55.572Z,21.06
2022-09-09T08:04:29.268Z,21.20
2022-09-09T08:07:04.195Z,21.35
2022-09-09T08:09:38.526Z,21.48
2022-09-09T08:12:14.377Z,21.60
2022-09-09T08:14:47.226Z,21.74
2022-09-09T08:17:20.145Z,21.86
2022-09-09T08:19:53.010Z,21.99
2022-09-09T08:22:26.442Z,22.09
2022-09-09T08:27:34.490Z,22.36
2022-09-09T08:30:08.698Z,22.51
2022-09-09T08:32:45.512Z,22.69
2022-09-09T08:35:20.313Z,22.89
2022-09-09T08:37:56.318Z,23.05
2022-09-09T08:40:40.385Z,23.20
2022-09-09T08:43:14.278Z,23.34
2022-09-09T08:45:52.661Z,23.51
2022-09-09T08:48:44.384Z,23.67
2022-09-09T08:51:18.753Z,23.79
2022-09-09T08:53:57.739Z,23.95
2022-09-09T08:56:34.970Z,24.10
2022-09-09T08:59:08.836Z,24.22
2022-09-09T09:01:53.129Z,24.31
2022-09-09T09:04:41.089Z,24.39
2022-09-09T09:07:24.118Z,24.41
2022-09-09T09:10:09.083Z,24.41
2022-09-09T09:12:50.205Z,24.40
2022-09-09T09:15:28.341Z,24.36
2022-09-09T09:18:04.257Z,24.29
2022-09-09T09:20:44.714Z,24.24
2022-09-09T09:23:24.466Z,24.14
2022-09-09T09:26:01.926Z,24.05
2022-09-09T09:28:37.642Z,23.98
2022-09-09T09:31:13.842Z,23.95
2022-09-09T09:33:51.225Z,23.98
2022-09-09T09:36:28.301Z,24.06
2022-09-09T09:41:56.361Z,24.27
2022-09-09T09:44:33.759Z,24.43
2022-09-09T09:47:13.525Z,24.57
2022-09-09T09:49:55.138Z,24.74
2022-09-09T09:52:30.775Z,24.86
2022-09-09T09:55:08.572Z,24.96
2022-09-09T09:57:41.856Z,25.02
2022-09-09T10:00:21.669Z,25.08
2022-09-09T10:02:54.629Z,25.08
2022-09-09T10:05:35.544Z,25.09
2022-09-09T10:08:12.981Z,25.09
2022-09-09T10:10:57.397Z,25.11
2022-09-09T10:13:38.773Z,25.15
2022-09-09T10:16:34.545Z,25.19
2022-09-09T10:19:15.878Z,25.27
2022-09-09T10:22:21.036Z,25.37
2022-09-09T10:25:35.618Z,25.44
2022-09-09T10:28:55.571Z,25.46
2022-09-09T10:31:39.609Z,25.42
2022-09-09T10:34:28.521Z,25.33
2022-09-09T10:37:09.897Z,25.24
2022-09-09T10:39:43.918Z,25.12
2022-09-09T10:42:18.591Z,25.03
2022-09-09T10:45:05.603Z,24.93
2022-09-09T10:47:52.413Z,24.84
2022-09-09T10:51:05.294Z,24.73
2022-09-09T10:53:47.226Z,24.67
2022-09-09T10:56:25.126Z,24.62
2022-09-09T10:59:03.344Z,24.56
2022-09-09T11:01:45.845Z,24.48
2022-09-09T11:04:26.049Z,24.40
2022-09-09T11:07:00.943Z,24.29
2022-09-09T11:09:40.362Z,24.22
2022-09-09T11:12:17.822Z,24.13
2022-09-09T11:14:56.657Z,24.05
2022-09-09T11:17:39.061Z,23.98
2022-09-09T11:20:16.643Z,23.92
2022-09-09T11:23:01.290Z,23.88
2022-09-09T11:25:39.520Z,23.85
2022-09-09T11:28:28.195Z,23.82
2022-09-09T11:31:21.149Z,23.82
2022-09-09T11:34:09.683Z,23.79
2022-09-09T11:36:58.371Z,23.75
2022-09-09T11:39:47.495Z,23.74
2022-09-09T11:42:23.383Z,23.73
2022-09-09T11:44:57.812Z,23.71
2022-09-09T11:47:32.964Z,23.72
2022-09-09T11:50:31.464Z,23.69
2022-09-09T11:53:26.141Z,23.67
2022-09-09T11:56:11.650Z,23.64
2022-09-09T11:58:56.270Z,23.62
2022-09-09T12:01:41.352Z,23.65
2022-09-09T12:04:29.993Z,23.69
2022-09-09T12:07:07.021Z,23.77
2022-09-09T12:09:52.092Z,23.91
2022-09-09T12:12:32.042Z,24.02
2022-09-09T12:15:30.363Z,24.15
2022-09-09T12:18:04.000Z,24.22
2022-09-09T12:20:39.922Z,24.27
2022-09-09T12:23:26.244Z,24.34
2022-09-09T12:26:16.732Z,24.37
2022-09-09T12:28:58.267Z,24.40
2022-09-09T12:31:37.298Z,24.43
2022-09-09T12:34:19.129Z,24.47
2022-09-09T12:37:04.417Z,24.52
2022-09-09T12:39:43.602Z,24.57
2022-09-09T12:42:21.092Z,24.64
2022-09-09T12:44:56.140Z,24.70
2022-09-09T12:47:38.728Z,24.78
2022-09-09T12:50:19.766Z,24.86
2022-09-09T12:52:55.495Z,24.91
2022-09-09T12:55:32.331Z,24.98
2022-09-09T12:58:08.170Z,25.05
2022-09-09T13:00:53.246Z,25.13
2022-09-09T13:03:27.213Z,25.21
2022-09-09T13:06:02.213Z,25.26
2022-09-09T13:08:35.180Z,25.32
2022-09-09T13:11:13.368Z,25.40
2022-09-09T13:13:59.858Z,25.47
2022-09-09T13:16:38.901Z,25.49
2022-09-09T13:19:18.006Z,25.52
2022-09-09T13:21:51.802Z,25.50
2022-09-09T13:24:30.762Z,25.50
2022-09-09T13:27:06.626Z,25.47
2022-09-09T13:29:41.678Z,25.46
2022-09-09T13:32:19.898Z,25.48
2022-09-09T13:34:54.161Z,25.44
2022-09-09T13:37:32.303Z,25.44
2022-09-09T13:40:08.562Z,25.43
2022-09-09T13:42:44.452Z,25.41
2022-09-09T13:45:22.838Z,25.39
2022-09-09T13:47:56.754Z,25.37
2022-09-09T13:50:31.433Z,25.34
2022-09-09T13:53:05.629Z,25.31
2022-09-09T13:55:40.233Z,25.30
2022-09-09T13:58:19.265Z,25.32
2022-09-09T14:00:53.976Z,25.30
2022-09-09T14:03:26.915Z,25.29
2022-09-09T14:06:00.144Z,25.30
2022-09-09T14:08:38.459Z,25.31
2022-09-09T14:11:14.484Z,25.33
2022-09-09T14:13:47.808Z,25.33
2022-09-09T14:16:22.845Z,25.34
2022-09-09T14:18:57.228Z,25.32
2022-09-09T14:21:30.434Z,25.34
2022-09-09T14:24:03.715Z,25.36
2022-09-09T14:26:37.223Z,25.41
2022-09-09T14:29:10.141Z,25.44
2022-09-09T14:31:44.606Z,25.52
2022-09-09T14:34:17.899Z,25.57
2022-09-09T14:36:51.547Z,25.63
2022-09-09T14:39:24.610Z,25.69
2022-09-09T14:41:57.542Z,25.73
2022-09-09T14:44:30.467Z,25.80
2022-09-09T14:47:04.745Z,25.82
2022-09-09T14:49:39.114Z,25.84
2022-09-09T14:52:14.087Z,25.84
2022-09-09T14:54:47.426Z,25.82
2022-09-09T14:57:20.269Z,25.78
2022-09-09T14:59:53.232Z,25.72
2022-09-09T15:02:27.589Z,25.66
2022-09-09T15:05:00.645Z,25.56
2022-09-09T15:07:33.520Z,25.45
2022-09-09T15:10:07.635Z,25.35
2022-09-09T15:12:40.584Z,25.23
2022-09-09T15:15:13.839Z,25.11
2022-09-09T15:17:48.551Z,25.00
2022-09-09T15:20:21.571Z,24.89
2022-09-09T15:22:54.384Z,24.79
2022-09-09T15:25:27.559Z,24.69
2022-09-09T15:28:00.450Z,24.59
2022-09-09T15:30:33.320Z,24.47
2022-09-09T15:33:13.032Z,24.38
2022-09-09T15:35:45.999Z,24.26
2022-09-09T15:38:20.028Z,24.16
2022-09-09T15:40:56.582Z,24.08
2022-09-09T15:43:29.381Z,23.98
2022-09-09T15:46:25.459Z,23.91
2022-09-09T15:49:01.148Z,23.81
2022-09-09T15:51:43.069Z,23.72
2022-09-09T15:54:19.098Z,23.65
2022-09-09T15:56:55.901Z,23.58
2022-09-09T15:59:30.272Z,23.51
2022-09-09T16:02:03.846Z,23.45
2022-09-09T16:04:38.634Z,23.42
2022-09-09T16:07:11.655Z,23.38
2022-09-09T16:09:44.606Z,23.36
2022-09-09T16:12:17.484Z,23.32
2022-09-09T16:14:50.656Z,23.27
2022-09-09T16:17:23.501Z,23.22
2022-09-09T16:19:58.624Z,23.18
2022-09-09T16:22:31.714Z,23.11
2022-09-09T16:25:04.831Z,23.06
2022-09-09T16:27:38.297Z,23.00
2022-09-09T16:30:12.428Z,22.95
2022-09-09T16:32:45.421Z,22.90
2022-09-09T16:35:20.507Z,22.85
2022-09-09T16:37:54.187Z,22.79
2022-09-09T16:40:27.061Z,22.73
2022-09-09T16:43:01.771Z,22.66
2022-09-09T16:45:34.614Z,22.64
2022-09-09T16:48:07.746Z,22.59
2022-09-09T16:50:41.887Z,22.56
2022-09-09T16:53:14.940Z,22.53
2022-09-09T16:55:47.956Z,22.49
2022-09-09T16:58:20.749Z,22.46
2022-09-09T17:01:00.153Z,22.46
2022-09-09T17:03:33.939Z,22.43
2022-09-09T17:06:13.428Z,22.43
2022-09-09T17:08:46.394Z,22.41
2022-09-09T17:11:20.766Z,22.41
2022-09-09T17:13:55.625Z,22.38
2022-09-09T17:16:31.316Z,22.39
2022-09-09T17:19:05.855Z,22.37
2022-09-09T17:21:59.930Z,22.34
2022-09-09T17:24:34.070Z,22.33
2022-09-09T17:27:06.859Z,22.31
2022-09-09T17:29:40.389Z,22.31
2022-09-09T17:32:13.242Z,22.28
2022-09-09T17:34:46.976Z,22.29
2022-09-09T17:37:21.119Z,22.27
2022-09-09T17:39:53.972Z,22.24
2022-09-09T17:42:26.832Z,22.19
2022-09-09T17:45:00.374Z,22.13
2022-09-09T17:47:33.220Z,22.06
2022-09-09T17:50:07.644Z,22.00
2022-09-09T17:52:42.656Z,21.93
2022-09-09T17:55:16.832Z,21.83
2022-09-09T17:57:49.629Z,21.74
2022-09-09T18:00:22.760Z,21.66
2022-09-09T18:02:56.082Z,21.59
2022-09-09T18:05:29.038Z,21.50
2022-09-09T18:08:04.200Z,21.40
2022-09-09T18:10:37.092Z,21.29
2022-09-09T18:13:10.451Z,21.20
2022-09-09T18:15:49.765Z,21.08
2022-09-09T18:18:23.196Z,20.92
2022-09-09T18:21:01.842Z,20.77
2022-09-09T18:23:38.648Z,20.62
2022-09-09T18:26:13.787Z,20.44
2022-09-09T18:28:52.167Z,20.29
2022-09-09T18:31:28.155Z,20.14
2022-09-09T18:34:04.421Z,20.02
2022-09-09T18:36:39.883Z,19.90
2022-09-09T18:39:16.498Z,19.80
2022-09-09T18:41:51.858Z,19.71
2022-09-09T18:44:27.032Z,19.61
2022-09-09T18:47:00.691Z,19.54
2022-09-09T18:49:34.585Z,19.50
2022-09-09T18:52:10.996Z,19.44
2022-09-09T18:54:48.394Z,19.39
2022-09-09T18:57:21.770Z,19.33
2022-09-09T18:59:55.803Z,19.27
2022-09-09T19:02:29.038Z,19.22
2022-09-09T19:05:03.046Z,19.19
2022-09-09T19:07:36.060Z,19.12
2022-09-09T19:10:11.374Z,19.10
2022-09-09T19:12:44.566Z,19.04
2022-09-09T19:15:18.021Z,19.01
2022-09-09T19:17:51.278Z,18.96
2022-09-09T19:20:25.656Z,18.91
2022-09-09T19:22:58.588Z,18.87
2022-09-09T19:25:37.444Z,18.83
2022-09-09T19:28:11.021Z,18.75
2022-09-09T19:30:47.752Z,18.67
2022-09-09T19:33:20.617Z,18.60
2022-09-09T19:35:58.830Z,18.53
2022-09-09T19:38:32.864Z,18.43
2022-09-09T19:41:09.919Z,18.35
2022-09-09T19:43:43.128Z,18.24
2022-09-09T19:46:18.309Z,18.17
2022-09-09T19:48:51.262Z,18.10
2022-09-09T19:51:25.105Z,18.02
2022-09-09T19:53:59.576Z,17.92
2022-09-09T19:56:35.605Z,17.87
2022-09-09T19:59:10.739Z,17.76
2022-09-09T20:01:45.713Z,17.68
2022-09-09T20:04:18.692Z,17.60
2022-09-09T20:06:53.250Z,17.51
2022-09-09T20:09:29.033Z,17.44
2022-09-09T20:12:03.936Z,17.38
2022-09-09T20:14:39.601Z,17.28
2022-09-09T20:17:12.958Z,17.20
2022-09-09T20:19:46.423Z,17.14
2022-09-09T20:22:19.816Z,17.07
2022-09-09T20:24:52.807Z,17.01
2022-09-09T20:27:27.915Z,16.96
2022-09-09T20:30:00.749Z,16.89
2022-09-09T20:32:33.903Z,16.86
2022-09-09T20:35:08.361Z,16.79
2022-09-09T20:37:42.563Z,16.75
2022-09-09T20:40:15.836Z,16.72
2022-09-09T20:42:51.439Z,16.67
2022-09-09T20:45:24.304Z,16.64
2022-09-09T20:47:57.429Z,16.62
2022-09-09T20:50:31.516Z,16.58
2022-09-09T20:53:05.208Z,16.56
2022-09-09T20:55:38.082Z,16.56
2022-09-09T20:58:12.482Z,16.56
2022-09-09T21:00:45.388Z,16.58
2022-09-09T21:03:18.201Z,16.56
2022-09-09T21:05:51.033Z,16.58
2022-09-09T21:08:24.123Z,16.60
2022-09-09T21:10:57.548Z,16.61
2022-09-09T21:13:32.613Z,16.64
2022-09-09T21:16:06.367Z,16.65
2022-09-09T21:18:40.570Z,16.63
2022-09-09T21:21:13.749Z,16.64
2022-09-09T21:23:46.554Z,16.63
2022-09-09T21:26:19.640Z,16.65
2022-09-09T21:28:54.987Z,16.70
2022-09-09T21:31:28.656Z,16.73
2022-09-09T21:34:01.765Z,16.77
2022-09-09T21:36:34.541Z,16.82
2022-09-09T21:39:07.788Z,16.85
2022-09-09T21:41:41.108Z,16.89
2022-09-09T21:44:15.359Z,16.94
2022-09-09T21:46:48.332Z,16.94
2022-09-09T21:49:21.574Z,16.96
2022-09-09T21:51:55.239Z,16.98
2022-09-09T21:54:31.656Z,17.00
2022-09-09T21:57:04.764Z,17.01
2022-09-09T21:59:38.970Z,17.03
2022-09-09T22:02:12.775Z,17.02
2022-09-09T22:04:45.912Z,17.04
2022-09-09T22:07:18.758Z,17.06
2022-09-09T22:09:51.530Z,17.07
2022-09-09T22:12:24.648Z,17.08
2022-09-09T22:14:58.794Z,17.07
2022-09-09T22:17:31.876Z,17.07
2022-09-09T22:20:05.664Z,17.06
2022-09-09T22:22:38.469Z,17.05
2022-09-09T22:25:11.318Z,17.01
2022-09-09T22:27:44.237Z,17.00
2022-09-09T22:30:19.465Z,16.98
2022-09-09T22:32:52.396Z,16.96
2022-09-09T22:35:25.771Z,16.96
2022-09-09T22:37:58.607Z,16.98
2022-09-09T22:40:31.510Z,17.01
2022-09-09T22:43:04.708Z,17.05
2022-09-09T22:45:38.868Z,17.08
2022-09-09T22:48:13.104Z,17.10
2022-09-09T22:50:46.724Z,17.10
2022-09-09T22:53:19.947Z,17.10
2022-09-09T22:55:59.381Z,17.10
2022-09-09T22:58:34.238Z,17.07
2022-09-09T23:01:15.878Z,17.06
2022-09-09T23:03:50.674Z,16.99
2022-09-09T23:06:25.560Z,16.96
2022-09-09T23:09:01.417Z,16.93
2022-09-09T23:11:37.002Z,16.89
2022-09-09T23:14:13.145Z,16.90
2022-09-09T23:16:48.187Z,16.90
2022-09-09T23:19:21.906Z,16.91
2022-09-09T23:21:54.865Z,16.95
2022-09-09T23:24:28.961Z,17.01
2022-09-09T23:27:01.777Z,17.08
2022-09-09T23:29:34.753Z,17.15
2022-09-09T23:32:09.181Z,17.23
2022-09-09T23:34:42.770Z,17.30
2022-09-09T23:37:16.422Z,17.39
2022-09-09T23:39:49.585Z,17.46
2022-09-09T23:42:22.421Z,17.55
2022-09-09T23:44:55.628Z,17.60
2022-09-09T23:47:30.333Z,17.69
2022-09-09T23:50:03.239Z,17.75
2022-09-09T23:52:37.064Z,17.81
2022-09-09T23:55:10.417Z,17.87
2022-09-09T23:57:43.230Z,17.92
